首页
METAR-TAF:

METAR-TAF

机场 :

Revelstoke, 不列颠哥伦比亚, 加拿大

纬度: 50-58N, 经度: 118-11W, 海拔: 443米

当前天气观测

该预报发布于30分钟前的15:00 UTC
风速5节,风向西转西南,在西转西北之间变化
温度 14°C
湿度 67%
气压 1012 hPa
能見度: 14.5公里
天空无云

METAR: CYRV 121500Z AUTO 24005KT 190V290 9SM CLR 14/08 A2988 RMK SLP122 DENSITY ALT 1600FT

时间: 08:30 (15:30 UTC)


TAF: 丢失

超过4000个机场的气象观测和天气预报(METAR&TAF报告)。

可查询的气象台以黄色和红色小点在地图上表示。

将鼠标移到小点上方,可查看气象台名称。

然后点击查看天气观测和预报。

如需切换地图:点击带黑十字的绿色按钮放大地图;点击带横线的绿色按钮缩小地图;或者点击绿色箭头查看邻近地区的地图。


METAR-TAF: